createdAt,value
2023-04-18T00:00:12.505Z,7.00
2023-04-18T00:02:40.495Z,7.00
2023-04-18T00:05:08.557Z,6.90
2023-04-18T00:07:36.037Z,6.80
2023-04-18T00:10:04.563Z,6.70
2023-04-18T00:12:32.378Z,6.60
2023-04-18T00:15:02.482Z,6.60
2023-04-18T00:17:30.469Z,6.50
2023-04-18T00:19:58.498Z,6.60
2023-04-18T00:22:25.958Z,6.50
2023-04-18T00:24:53.049Z,6.50
2023-04-18T00:27:20.652Z,6.40
2023-04-18T00:29:47.833Z,6.40
2023-04-18T00:32:15.046Z,6.20
2023-04-18T00:34:41.991Z,6.20
2023-04-18T00:37:09.480Z,6.10
2023-04-18T00:39:36.771Z,6.10
2023-04-18T00:42:04.215Z,6.10
2023-04-18T00:44:31.887Z,6.10
2023-04-18T00:46:59.198Z,6.00
2023-04-18T00:49:29.141Z,5.90
2023-04-18T00:51:57.331Z,5.80
2023-04-18T00:54:26.162Z,5.80
2023-04-18T00:56:53.634Z,5.80
2023-04-18T00:59:21.505Z,5.80
2023-04-18T01:01:48.705Z,5.80
2023-04-18T01:04:17.391Z,5.70
2023-04-18T01:06:45.672Z,5.70
2023-04-18T01:09:14.104Z,5.60
2023-04-18T01:11:41.083Z,5.60
2023-04-18T01:14:08.770Z,5.50
2023-04-18T01:16:37.221Z,5.50
2023-04-18T01:19:05.380Z,5.50
2023-04-18T01:21:37.673Z,5.40
2023-04-18T01:24:08.969Z,5.40
2023-04-18T01:26:35.927Z,5.50
2023-04-18T01:29:02.766Z,5.50
2023-04-18T01:31:29.970Z,5.40
2023-04-18T01:33:56.860Z,5.40
2023-04-18T01:36:23.679Z,5.30
2023-04-18T01:38:50.722Z,5.30
2023-04-18T01:41:17.815Z,5.20
2023-04-18T01:43:44.696Z,5.20
2023-04-18T01:46:11.881Z,5.10
2023-04-18T01:48:38.800Z,5.00
2023-04-18T01:51:05.987Z,5.00
2023-04-18T01:53:32.917Z,4.90
2023-04-18T01:55:59.964Z,4.90
2023-04-18T01:58:27.195Z,4.90
2023-04-18T02:00:55.148Z,5.00
2023-04-18T02:03:22.245Z,5.00
2023-04-18T02:05:49.354Z,4.90
2023-04-18T02:08:17.348Z,4.90
2023-04-18T02:10:45.218Z,4.90
2023-04-18T02:13:12.470Z,4.80
2023-04-18T02:15:39.349Z,4.80
2023-04-18T02:18:06.907Z,4.70
2023-04-18T02:20:34.115Z,4.70
2023-04-18T02:23:01.564Z,4.60
2023-04-18T02:25:29.372Z,4.60
2023-04-18T02:27:58.231Z,4.50
2023-04-18T02:30:28.302Z,4.50
2023-04-18T02:32:58.808Z,4.50
2023-04-18T02:35:26.927Z,4.50
2023-04-18T02:37:53.760Z,4.40
2023-04-18T02:40:21.115Z,4.40
2023-04-18T02:42:48.259Z,4.30
2023-04-18T02:45:15.192Z,4.30
2023-04-18T02:47:53.709Z,4.30
2023-04-18T02:50:22.016Z,4.30
2023-04-18T02:52:48.946Z,4.30
2023-04-18T02:55:15.870Z,4.30
2023-04-18T02:57:42.930Z,4.20
2023-04-18T03:00:10.255Z,4.20
2023-04-18T03:02:37.332Z,4.20
2023-04-18T03:05:04.590Z,4.10
2023-04-18T03:07:31.625Z,4.10
2023-04-18T03:09:58.517Z,4.10
2023-04-18T03:12:25.690Z,4.10
2023-04-18T03:14:52.584Z,4.10
2023-04-18T03:17:19.613Z,4.00
2023-04-18T03:19:46.890Z,4.00
2023-04-18T03:22:14.706Z,4.00
2023-04-18T03:24:41.911Z,4.00
2023-04-18T03:27:09.068Z,3.90
2023-04-18T03:29:36.447Z,3.90
2023-04-18T03:32:03.533Z,3.90
2023-04-18T03:34:30.844Z,3.90
2023-04-18T03:36:57.727Z,3.80
2023-04-18T03:39:24.901Z,3.80
2023-04-18T03:41:52.432Z,3.80
2023-04-18T03:44:19.275Z,3.80
2023-04-18T03:46:46.325Z,3.80
2023-04-18T03:49:13.313Z,3.70
2023-04-18T03:51:47.293Z,3.70
2023-04-18T03:54:15.986Z,3.70
2023-04-18T03:56:43.650Z,3.70
2023-04-18T03:59:11.602Z,3.70
2023-04-18T04:01:38.614Z,3.70
2023-04-18T04:04:05.915Z,3.60
2023-04-18T04:06:33.264Z,3.60
2023-04-18T04:09:00.530Z,3.60
2023-04-18T04:11:27.543Z,3.60
2023-04-18T04:13:56.946Z,3.50
2023-04-18T04:16:24.094Z,3.60
2023-04-18T04:18:51.302Z,3.60
2023-04-18T04:21:20.669Z,3.60
2023-04-18T04:23:48.224Z,3.60
2023-04-18T04:26:17.389Z,3.60
2023-04-18T04:28:46.725Z,3.60
2023-04-18T04:31:14.140Z,3.60
2023-04-18T04:33:41.301Z,3.70
2023-04-18T04:36:09.087Z,3.70
2023-04-18T04:38:38.704Z,3.70
2023-04-18T04:41:09.298Z,3.70
2023-04-18T04:43:36.211Z,3.70
2023-04-18T04:46:04.624Z,3.80
2023-04-18T04:48:31.673Z,3.90
2023-04-18T04:51:00.010Z,4.00
2023-04-18T04:53:30.469Z,4.30
2023-04-18T04:55:58.380Z,4.40
2023-04-18T04:58:25.581Z,4.50
2023-04-18T05:00:55.545Z,4.70
2023-04-18T05:03:22.771Z,5.00
2023-04-18T05:05:51.108Z,5.10
2023-04-18T05:08:17.906Z,5.40
2023-04-18T05:10:45.972Z,5.40
2023-04-18T05:13:12.755Z,5.60
2023-04-18T05:15:40.152Z,5.70
2023-04-18T05:18:07.708Z,5.80
2023-04-18T05:20:34.668Z,5.80
2023-04-18T05:23:01.531Z,5.90
2023-04-18T05:25:29.801Z,5.90
2023-04-18T05:27:56.990Z,5.90
2023-04-18T05:30:23.851Z,6.00
2023-04-18T05:32:50.804Z,6.10
2023-04-18T05:35:17.713Z,6.20
2023-04-18T05:37:44.527Z,6.30
2023-04-18T05:40:12.427Z,6.40
2023-04-18T05:42:39.461Z,6.40
2023-04-18T05:45:06.714Z,6.50
2023-04-18T05:47:33.765Z,6.50
2023-04-18T05:50:00.853Z,6.60
2023-04-18T11:08:24.813Z,15.10
2023-04-18T11:11:04.199Z,14.80
2023-04-18T11:13:32.761Z,14.70
2023-04-18T11:15:59.652Z,14.80
2023-04-18T11:18:26.478Z,14.40
2023-04-18T11:20:53.718Z,14.80
2023-04-18T11:23:25.582Z,15.60
2023-04-18T11:25:56.252Z,16.20
2023-04-18T11:28:25.080Z,16.30
2023-04-18T11:30:51.984Z,15.90
2023-04-18T11:33:19.312Z,15.80
2023-04-18T11:35:47.333Z,16.00
2023-04-18T11:38:16.085Z,16.00
2023-04-18T11:40:50.837Z,16.40
2023-04-18T11:43:24.097Z,16.40
2023-04-18T11:45:59.385Z,16.20
2023-04-18T11:48:40.643Z,16.20
2023-04-18T11:51:28.533Z,16.20
2023-04-18T11:53:55.472Z,15.90
2023-04-18T11:56:22.270Z,15.70
2023-04-18T11:58:49.196Z,15.70
2023-04-18T12:01:20.089Z,15.60
2023-04-18T12:04:08.051Z,15.20
2023-04-18T12:06:52.667Z,15.10
2023-04-18T12:09:21.671Z,14.90
2023-04-18T12:12:03.079Z,15.00
2023-04-18T12:14:30.364Z,14.60
2023-04-18T12:16:57.290Z,14.70
2023-04-18T12:19:29.240Z,15.00
2023-04-18T12:22:01.277Z,15.00
2023-04-18T12:24:48.663Z,15.50
2023-04-18T12:27:16.134Z,15.60
2023-04-18T12:29:43.514Z,15.60
2023-04-18T12:32:10.337Z,15.70
2023-04-18T12:34:37.242Z,16.40
2023-04-18T12:37:05.500Z,16.50
2023-04-18T12:39:32.334Z,16.60
2023-04-18T12:41:59.419Z,16.60
2023-04-18T12:44:26.576Z,16.90
2023-04-18T12:46:53.838Z,17.20
2023-04-18T12:49:20.693Z,17.90
2023-04-18T12:51:47.486Z,17.90
2023-04-18T12:54:14.540Z,18.00
2023-04-18T12:56:41.546Z,18.00
2023-04-18T12:59:08.276Z,18.10
2023-04-18T13:01:35.168Z,18.20
2023-04-18T13:04:11.695Z,18.60
2023-04-18T13:06:39.547Z,19.00
2023-04-18T13:09:06.630Z,19.00
2023-04-18T13:11:33.442Z,19.30
2023-04-18T13:14:00.687Z,19.50
2023-04-18T13:16:27.587Z,19.30
2023-04-18T13:18:57.719Z,18.90
2023-04-18T13:21:26.481Z,18.00
2023-04-18T13:23:53.426Z,18.00
2023-04-18T13:26:20.943Z,18.80
2023-04-18T13:28:47.875Z,19.20
2023-04-18T13:31:16.834Z,20.20
2023-04-18T13:33:44.109Z,20.30
2023-04-18T13:36:11.340Z,20.40
2023-04-18T13:38:38.580Z,21.00
2023-04-18T13:41:12.393Z,20.70
2023-04-18T13:43:40.210Z,21.40
2023-04-18T13:46:07.152Z,20.00
2023-04-18T13:48:34.153Z,19.90
2023-04-18T13:51:01.639Z,19.90
2023-04-18T13:53:31.028Z,21.10
2023-04-18T13:55:58.175Z,21.30
2023-04-18T13:58:25.012Z,21.30
2023-04-18T14:00:52.251Z,21.20
2023-04-18T14:03:19.463Z,21.50
2023-04-18T14:05:46.447Z,22.20
2023-04-18T14:08:14.664Z,22.00
2023-04-18T14:10:41.930Z,21.30
2023-04-18T14:13:09.345Z,20.40
2023-04-18T14:15:36.426Z,19.70
2023-04-18T14:18:03.347Z,20.20
2023-04-18T14:20:34.607Z,21.50
2023-04-18T14:23:02.135Z,22.10
2023-04-18T14:25:31.045Z,22.90
2023-04-18T14:28:06.849Z,23.60
2023-04-18T14:30:33.902Z,24.00
2023-04-18T14:33:02.204Z,22.50
2023-04-18T14:35:29.265Z,23.60
2023-04-18T14:37:56.224Z,23.20
2023-04-18T14:40:26.764Z,23.20
2023-04-18T14:42:53.626Z,23.10
2023-04-18T14:45:21.071Z,23.10
2023-04-18T14:47:48.545Z,23.60
2023-04-18T14:50:15.597Z,22.60
2023-04-18T14:52:42.923Z,23.10
2023-04-18T14:55:10.156Z,23.20
2023-04-18T14:57:38.451Z,24.50
2023-04-18T15:00:11.497Z,22.90
2023-04-18T15:02:39.490Z,23.00
2023-04-18T15:05:10.171Z,24.30
2023-04-18T15:07:38.015Z,25.10
2023-04-18T15:10:05.752Z,25.50
2023-04-18T15:12:33.324Z,25.60
2023-04-18T15:15:00.829Z,25.30
2023-04-18T15:17:28.460Z,25.90
2023-04-18T15:19:55.310Z,25.50
2023-04-18T15:22:22.829Z,25.60
2023-04-18T15:24:51.929Z,24.40
2023-04-18T15:27:19.581Z,24.60
2023-04-18T15:29:47.059Z,25.10
2023-04-18T15:32:14.484Z,25.10
2023-04-18T15:34:41.505Z,26.30
2023-04-18T15:37:08.316Z,25.90
2023-04-18T15:39:35.414Z,26.00
2023-04-18T15:42:02.298Z,23.70
2023-04-18T15:44:30.641Z,22.80
2023-04-18T15:46:58.214Z,22.10
2023-04-18T15:49:29.289Z,22.40
2023-04-18T15:51:56.878Z,22.00
2023-04-18T15:54:23.794Z,20.70
2023-04-18T15:56:50.859Z,19.60
2023-04-18T15:59:18.648Z,19.40
2023-04-18T16:01:46.264Z,19.70
2023-04-18T16:04:13.424Z,19.80
2023-04-18T16:07:00.550Z,19.90
2023-04-18T16:09:30.672Z,19.40
2023-04-18T16:11:58.056Z,19.40
2023-04-18T16:14:25.364Z,19.20
2023-04-18T16:16:54.246Z,18.60
2023-04-18T16:19:21.086Z,18.00
2023-04-18T16:21:50.027Z,17.70
2023-04-18T16:24:20.524Z,17.40
2023-04-18T16:26:47.635Z,17.10
2023-04-18T16:29:14.359Z,17.30
2023-04-18T16:31:42.723Z,17.60
2023-04-18T16:34:09.973Z,17.70
2023-04-18T16:36:36.932Z,17.70
2023-04-18T16:39:04.853Z,17.60
2023-04-18T16:41:32.028Z,17.40
2023-04-18T16:43:58.902Z,17.10
2023-04-18T16:46:25.924Z,17.00
2023-04-18T16:48:53.047Z,16.70
2023-04-18T16:51:20.067Z,16.40
2023-04-18T16:53:50.214Z,16.40
2023-04-18T16:56:17.117Z,16.30
2023-04-18T16:58:44.221Z,16.50
2023-04-18T17:01:12.161Z,16.80
2023-04-18T17:06:25.080Z,17.00
2023-04-18T17:09:11.611Z,17.10
2023-04-18T17:11:39.680Z,16.80
2023-04-18T17:14:18.005Z,16.80
2023-04-18T17:16:46.433Z,16.60
2023-04-18T17:19:15.459Z,16.90
2023-04-18T17:24:36.435Z,17.20
2023-04-18T17:27:04.774Z,17.90
2023-04-18T17:29:32.258Z,18.50
2023-04-18T17:32:07.983Z,17.90
2023-04-18T17:34:46.649Z,17.50
2023-04-18T17:37:15.828Z,16.80
2023-04-18T17:39:54.230Z,16.40
2023-04-18T17:42:23.306Z,16.10
2023-04-18T17:44:52.337Z,15.60
2023-04-18T17:47:19.840Z,15.30
2023-04-18T17:49:48.280Z,15.10
2023-04-18T17:55:34.906Z,15.10
2023-04-18T17:58:03.069Z,15.10
2023-04-18T18:00:31.091Z,14.90
2023-04-18T18:03:02.920Z,14.70
2023-04-18T18:05:37.452Z,14.50
2023-04-18T18:08:21.054Z,14.50
2023-04-18T18:13:41.398Z,14.40
2023-04-18T18:16:09.488Z,14.30
2023-04-18T18:18:37.836Z,14.10
2023-04-18T18:21:04.702Z,14.10
2023-04-18T18:23:31.734Z,14.00
2023-04-18T18:25:58.955Z,14.00
2023-04-18T18:28:26.152Z,13.90
2023-04-18T18:30:54.297Z,13.80
2023-04-18T18:33:22.175Z,13.70
2023-04-18T18:35:49.622Z,13.70
2023-04-18T18:38:17.011Z,13.50
2023-04-18T18:40:55.815Z,13.40
2023-04-18T18:43:27.452Z,13.40
2023-04-18T18:45:56.763Z,13.30
2023-04-18T18:48:24.518Z,13.20
2023-04-18T18:50:51.703Z,13.10
2023-04-18T18:53:23.248Z,13.10
2023-04-18T18:55:50.630Z,13.10
2023-04-18T18:58:29.018Z,13.00
2023-04-18T19:00:56.328Z,12.90
2023-04-18T19:03:26.358Z,12.90
2023-04-18T19:05:53.465Z,12.90
2023-04-18T19:08:20.312Z,12.90
2023-04-18T19:10:48.257Z,12.80
2023-04-18T19:13:15.817Z,12.80
2023-04-18T19:15:42.975Z,12.70
2023-04-18T19:18:10.035Z,12.70
2023-04-18T19:20:42.089Z,12.60
2023-04-18T19:23:09.266Z,12.70
2023-04-18T19:25:36.255Z,12.80
2023-04-18T19:28:05.291Z,12.70
2023-04-18T19:30:32.797Z,12.80
2023-04-18T19:33:00.277Z,12.80
2023-04-18T19:35:27.847Z,12.80
2023-04-18T19:38:01.828Z,12.80
2023-04-18T19:40:30.001Z,12.80
2023-04-18T19:42:57.336Z,12.70
2023-04-18T19:45:24.903Z,12.70
2023-04-18T19:47:52.129Z,12.80
2023-04-18T19:50:18.948Z,12.70
2023-04-18T19:52:46.179Z,12.80
2023-04-18T19:55:13.123Z,12.70
2023-04-18T19:57:41.573Z,12.70
2023-04-18T20:00:10.808Z,12.70
2023-04-18T20:02:37.838Z,12.70
2023-04-18T20:05:06.503Z,12.70
2023-04-18T20:07:34.256Z,12.70
2023-04-18T20:10:01.709Z,12.70
2023-04-18T20:12:28.872Z,12.80
2023-04-18T20:14:56.109Z,12.80
2023-04-18T20:17:22.967Z,12.80
2023-04-18T20:19:51.110Z,12.80
2023-04-18T20:22:19.241Z,12.80
2023-04-18T20:24:46.657Z,12.80
2023-04-18T20:27:13.637Z,12.80
2023-04-18T20:29:40.825Z,12.80
2023-04-18T20:32:07.739Z,12.70
2023-04-18T20:34:34.578Z,12.80
2023-04-18T20:37:01.487Z,12.70
2023-04-18T20:39:28.508Z,12.60
2023-04-18T20:41:57.828Z,12.60
2023-04-18T20:44:25.120Z,12.60
2023-04-18T20:46:53.542Z,12.60
2023-04-18T20:49:20.568Z,12.60
2023-04-18T20:51:48.449Z,12.70
2023-04-18T20:54:15.700Z,12.70
2023-04-18T20:56:42.856Z,12.70
2023-04-18T20:59:09.779Z,12.70
2023-04-18T21:01:37.261Z,12.60
2023-04-18T21:04:04.849Z,12.60
2023-04-18T21:06:32.932Z,12.60
2023-04-18T21:09:00.125Z,12.60
2023-04-18T21:11:27.280Z,12.60
2023-04-18T21:13:54.178Z,12.50
2023-04-18T21:16:21.355Z,12.60
2023-04-18T21:18:48.404Z,12.50
2023-04-18T21:21:15.697Z,12.50
2023-04-18T21:23:46.901Z,12.50
2023-04-18T21:26:14.175Z,12.50
2023-04-18T21:28:58.861Z,12.40
2023-04-18T21:31:27.391Z,12.40
2023-04-18T21:33:58.898Z,12.40
2023-04-18T21:36:27.837Z,12.40
2023-04-18T21:38:56.257Z,12.40
2023-04-18T21:41:23.602Z,12.40
2023-04-18T21:43:51.314Z,12.30
2023-04-18T21:46:18.544Z,12.30
2023-04-18T21:48:47.525Z,12.30
2023-04-18T21:51:19.458Z,12.20
2023-04-18T21:53:46.636Z,12.20
2023-04-18T21:56:14.116Z,12.20
2023-04-18T21:58:41.548Z,12.20
2023-04-18T22:01:09.858Z,12.20
2023-04-18T22:03:37.529Z,12.20
2023-04-18T22:06:04.770Z,12.10
2023-04-18T22:08:31.799Z,12.10
2023-04-18T22:10:59.532Z,12.10
2023-04-18T22:13:33.272Z,12.10
2023-04-18T22:16:07.493Z,12.20
2023-04-18T22:18:34.992Z,12.20
2023-04-18T22:21:03.557Z,12.20
2023-04-18T22:23:31.407Z,12.20
2023-04-18T22:25:58.712Z,12.20
2023-04-18T22:28:30.658Z,12.20
2023-04-18T22:30:58.072Z,12.20
2023-04-18T22:33:25.837Z,12.10
2023-04-18T22:35:53.161Z,12.10
2023-04-18T22:38:20.051Z,12.10
2023-04-18T22:40:47.286Z,12.10
2023-04-18T22:43:14.349Z,12.10
2023-04-18T22:45:41.306Z,12.00
2023-04-18T22:48:11.844Z,12.10
2023-04-18T22:50:43.084Z,12.10
2023-04-18T22:53:11.216Z,12.00
2023-04-18T22:55:41.322Z,12.00
2023-04-18T22:58:08.999Z,12.10
2023-04-18T23:00:36.408Z,12.00
2023-04-18T23:03:03.947Z,12.10
2023-04-18T23:05:31.183Z,12.00
2023-04-18T23:08:00.706Z,12.00
2023-04-18T23:10:27.891Z,12.00
2023-04-18T23:12:54.775Z,12.00
2023-04-18T23:15:23.056Z,11.90
2023-04-18T23:17:53.179Z,12.00
2023-04-18T23:20:20.982Z,11.90
2023-04-18T23:22:50.483Z,12.00
2023-04-18T23:25:19.389Z,12.00
2023-04-18T23:27:47.032Z,12.00
2023-04-18T23:30:15.811Z,12.00
2023-04-18T23:32:43.169Z,12.00
2023-04-18T23:35:11.490Z,12.00
2023-04-18T23:37:38.423Z,12.00
2023-04-18T23:40:06.869Z,11.90
2023-04-18T23:42:37.258Z,11.90
2023-04-18T23:45:06.084Z,11.90
2023-04-18T23:47:33.404Z,11.80
2023-04-18T23:50:00.457Z,11.90
2023-04-18T23:52:27.696Z,11.90
2023-04-18T23:54:54.650Z,11.80
2023-04-18T23:57:21.579Z,11.80
2023-04-18T23:59:48.409Z,11.80
